Time;durP1;ratioP1;P1;durP2;ratioP2;P2;SDS_P1;SDS_P2;PMS_P1;PMS_P2;Temp;Humidity;BMP_temperature;BMP_pressure;BME280_temperature;BME280_humidity;BME280_pressure;Samples;Min_cycle;Max_cycle;Signal;HPM_P1;HPM_P2
2022/06/10 00:00:51;;;;;;;3.83;2.17;;;;;;;16.24;73.70;101094.28;5064341;28;20512;-58
2022/06/10 00:03:20;;;;;;;4.15;2.53;;;;;;;16.20;73.49;101094.50;5073236;28;20054;-58
2022/06/10 00:05:49;;;;;;;3.65;2.10;;;;;;;16.16;73.59;101101.00;5081853;28;20415;-57
2022/06/10 00:08:23;;;;;;;3.60;2.28;;;;;;;16.11;73.93;101100.50;5076415;28;20040;-51
2022/06/10 00:10:51;;;;;;;3.53;1.98;;;;;;;16.07;73.74;101100.84;5065572;28;20045;-54
2022/06/10 00:13:21;;;;;;;2.90;2.10;;;;;;;16.01;73.87;101098.66;5064788;28;20083;-54
2022/06/10 00:15:48;;;;;;;3.03;1.73;;;;;;;15.98;73.85;101109.47;5064444;28;20064;-54
2022/06/10 00:18:16;;;;;;;4.50;2.08;;;;;;;15.94;73.77;101108.88;5058704;28;20056;-54
2022/06/10 00:20:45;;;;;;;2.72;2.13;;;;;;;15.90;74.50;101116.22;5060930;28;21653;-57
2022/06/10 00:23:12;;;;;;;3.53;2.17;;;;;;;15.86;74.32;101122.72;5047018;28;20048;-56
2022/06/10 00:25:39;;;;;;;3.20;2.05;;;;;;;15.81;74.52;101124.88;5057350;28;20099;-54
2022/06/10 00:28:07;;;;;;;3.08;2.08;;;;;;;15.76;74.77;101127.00;5061851;28;20412;-56
2022/06/10 00:30:36;;;;;;;4.72;2.42;;;;;;;15.72;75.30;101132.66;5059033;28;20135;-57
2022/06/10 00:33:04;;;;;;;4.55;2.00;;;;;;;15.66;75.45;101137.41;5064221;28;20049;-57
2022/06/10 00:35:32;;;;;;;3.55;1.90;;;;;;;15.63;75.21;101132.31;5056763;28;20057;-55
2022/06/10 00:38:00;;;;;;;2.72;2.00;;;;;;;15.60;75.27;101129.03;5062054;28;20044;-55
2022/06/10 00:40:30;;;;;;;6.10;2.03;;;;;;;15.56;75.22;101139.00;5062685;28;20036;-52
2022/06/10 00:42:57;;;;;;;4.18;2.05;;;;;;;15.52;75.45;101136.69;5057369;28;20145;-55
2022/06/10 00:46:04;;;;;;;2.35;1.80;;;;;;;15.48;75.87;101133.41;5063056;28;20045;-52
2022/06/10 00:48:56;;;;;;;3.33;1.88;;;;;;;15.45;75.68;101145.09;5051715;28;20060;-52
2022/06/10 00:51:42;;;;;;;4.72;1.90;;;;;;;15.41;75.78;101151.56;5056315;28;20044;-57
2022/06/10 00:54:28;;;;;;;3.70;2.08;;;;;;;15.36;76.10;101150.22;5044261;28;20040;-56
2022/06/10 00:57:05;;;;;;;5.13;2.35;;;;;;;15.32;76.50;101151.38;5042567;28;20049;-55
2022/06/10 00:59:38;;;;;;;6.47;2.33;;;;;;;15.30;76.57;101161.22;5062474;28;20071;-56
2022/06/10 01:02:15;;;;;;;4.55;1.90;;;;;;;15.24;76.71;101162.53;5060052;28;20064;-51
2022/06/10 01:04:43;;;;;;;5.03;1.98;;;;;;;15.19;76.88;101160.19;5045507;28;20067;-57
2022/06/10 01:07:12;;;;;;;4.03;2.13;;;;;;;15.14;76.91;101162.31;5061908;28;20385;-51
2022/06/10 01:09:39;;;;;;;4.78;1.90;;;;;;;15.11;76.91;101170.47;5063107;28;20060;-54
2022/06/10 01:12:37;;;;;;;5.03;2.30;;;;;;;15.04;78.37;101166.56;5037907;28;20656;-55
2022/06/10 01:15:33;;;;;;;3.55;2.20;;;;;;;15.00;77.77;101165.09;5052685;28;20074;-54
2022/06/10 01:18:06;;;;;;;2.38;1.80;;;;;;;14.98;77.75;101169.63;5058166;28;20068;-57
2022/06/10 01:20:52;;;;;;;7.22;1.77;;;;;;;14.95;77.57;101183.13;5059379;28;20056;-53
2022/06/10 01:23:41;;;;;;;3.13;2.00;;;;;;;14.93;77.79;101185.00;5061163;28;20048;-54
2022/06/10 01:26:25;;;;;;;3.58;2.08;;;;;;;14.88;77.78;101176.53;5060834;28;20053;-53
2022/06/10 01:29:17;;;;;;;3.33;1.88;;;;;;;14.85;78.33;101189.97;5047885;28;20067;-54
2022/06/10 01:31:51;;;;;;;2.75;2.00;;;;;;;14.81;78.75;101184.03;5042240;28;20067;-52
2022/06/10 01:34:21;;;;;;;4.60;2.33;;;;;;;14.76;79.37;101187.94;5044106;28;20044;-56
2022/06/10 01:36:52;;;;;;;4.50;2.40;;;;;;;14.72;79.78;101184.66;5058167;28;20055;-55
2022/06/10 01:39:54;;;;;;;4.65;2.35;;;;;;;14.69;79.93;101182.22;5043159;28;20578;-54
2022/06/10 01:42:24;;;;;;;4.40;2.80;;;;;;;14.64;79.55;101185.19;5044402;28;20591;-56
2022/06/10 01:45:08;;;;;;;3.65;2.70;;;;;;;14.62;80.50;101189.72;5059861;28;20044;-54
2022/06/10 01:47:51;;;;;;;3.92;2.50;;;;;;;14.60;80.87;101188.97;5052814;28;20447;-56
2022/06/10 01:50:23;;;;;;;6.18;2.88;;;;;;;14.57;81.41;101191.81;5039465;28;20052;-53
2022/06/10 01:52:56;;;;;;;5.10;3.15;;;;;;;14.54;80.93;101194.66;5041457;28;20049;-55
2022/06/10 01:55:33;;;;;;;3.85;2.55;;;;;;;14.51;81.18;101194.91;5044060;28;20049;-54
2022/06/10 01:58:06;;;;;;;8.40;3.10;;;;;;;14.49;81.24;101202.06;5045015;28;20053;-54
2022/06/10 02:00:38;;;;;;;3.80;2.40;;;;;;;14.47;81.52;101211.06;5042513;28;20441;-56
2022/06/10 02:03:21;;;;;;;6.30;3.60;;;;;;;14.42;81.48;101206.91;5042835;28;20524;-56
2022/06/10 02:05:52;;;;;;;5.65;2.80;;;;;;;14.37;82.17;101205.53;5066470;28;20492;-54
2022/06/10 02:08:29;;;;;;;6.60;2.85;;;;;;;14.34;82.25;101213.66;5045098;28;20056;-52
2022/06/10 02:11:05;;;;;;;5.57;2.90;;;;;;;14.31;82.81;101216.50;5043913;28;20071;-52
2022/06/10 02:13:38;;;;;;;6.10;2.80;;;;;;;14.26;82.75;101218.59;5043082;28;20055;-54
2022/06/10 02:16:08;;;;;;;6.93;3.42;;;;;;;14.23;83.45;101222.31;5040488;28;20068;-53
2022/06/10 02:18:59;;;;;;;5.03;2.50;;;;;;;14.22;83.57;101223.25;5046860;28;20064;-55
2022/06/10 02:21:42;;;;;;;7.07;2.80;;;;;;;14.20;83.41;101225.16;5061100;28;20527;-55
2022/06/10 02:24:14;;;;;;;5.20;2.60;;;;;;;14.18;83.88;101232.31;5057441;28;20051;-57
2022/06/10 02:26:42;;;;;;;3.67;2.45;;;;;;;14.14;84.39;101222.91;5029031;28;20049;-55
2022/06/10 02:29:16;;;;;;;6.57;2.85;;;;;;;14.12;84.44;101236.22;5060199;28;20045;-51
2022/06/10 02:31:48;;;;;;;5.22;2.97;;;;;;;14.11;85.43;101233.69;5061003;28;20131;-56
2022/06/10 02:34:15;;;;;;;4.60;2.83;;;;;;;14.07;85.19;101233.03;5041814;28;20040;-56
2022/06/10 02:36:42;;;;;;;5.80;2.83;;;;;;;14.06;86.65;101235.78;5037846;28;20215;-52
2022/06/10 02:39:25;;;;;;;7.00;3.17;;;;;;;14.03;86.51;101242.09;5060449;28;20052;-54
2022/06/10 02:42:02;;;;;;;7.65;3.45;;;;;;;14.02;86.68;101243.06;5063850;28;20048;-51
2022/06/10 02:44:38;;;;;;;7.03;4.05;;;;;;;14.00;87.05;101247.59;5060893;28;20049;-54
2022/06/10 02:47:11;;;;;;;6.25;3.55;;;;;;;13.96;87.98;101248.75;5068530;28;20044;-52
2022/06/10 02:49:38;;;;;;;8.23;3.20;;;;;;;13.93;87.33;101257.72;5061590;28;20072;-56
2022/06/10 02:52:06;;;;;;;3.92;2.95;;;;;;;13.90;87.30;101252.63;5057341;28;20064;-57
2022/06/10 02:54:37;;;;;;;4.43;2.70;;;;;;;13.89;87.40;101260.66;5042702;28;20053;-55
2022/06/10 02:57:17;;;;;;;7.88;3.35;;;;;;;13.85;88.15;101260.00;5060447;28;20048;-54
2022/06/10 03:03:20;;;;;;;6.88;3.58;;;;;;;13.81;87.84;101268.22;5059310;28;20056;-55
2022/06/10 03:06:05;;;;;;;10.88;4.20;;;;;;;13.78;88.57;101273.69;5014517;28;20487;-54
2022/06/10 03:08:44;;;;;;;15.40;5.70;;;;;;;13.77;88.71;101279.94;5066810;28;20052;-55
2022/06/10 03:11:27;;;;;;;14.35;5.97;;;;;;;13.74;88.87;101278.34;5038022;28;20056;-56
2022/06/10 03:14:10;;;;;;;8.48;4.65;;;;;;;13.73;89.15;101281.91;5046860;28;20528;-54
2022/06/10 03:16:49;;;;;;;10.25;5.45;;;;;;;13.73;89.57;101281.06;5048226;28;20068;-56
2022/06/10 03:19:30;;;;;;;11.93;6.30;;;;;;;13.74;90.23;101285.44;5063051;28;20044;-56
2022/06/10 03:22:20;;;;;;;9.95;6.60;;;;;;;13.76;89.84;101294.13;5063604;28;21890;-54
2022/06/10 03:24:53;;;;;;;10.50;5.90;;;;;;;13.77;89.98;101296.66;5053934;28;20053;-56
2022/06/10 03:27:28;;;;;;;10.90;5.93;;;;;;;13.77;90.23;101298.47;5063512;28;20052;-57
2022/06/10 03:29:56;;;;;;;;;;;;;;;13.75;90.46;101297.72;5047572;28;20052;-53
2022/06/10 03:32:45;;;;;;;11.70;5.80;;;;;;;13.73;90.28;101292.50;5044366;28;20381;-53
2022/06/10 03:35:21;;;;;;;12.60;4.90;;;;;;;13.73;90.46;101302.25;5042720;28;20373;-54
2022/06/10 03:37:49;;;;;;;14.45;5.68;;;;;;;13.73;90.28;101307.53;5060374;28;20056;-52
2022/06/10 03:40:19;;;;;;;8.13;4.72;;;;;;;13.74;90.58;101312.75;5061305;28;20052;-52
2022/06/10 03:42:49;;;;;;;7.97;4.85;;;;;;;13.76;90.57;101312.66;5050367;28;20051;-52
2022/06/10 03:45:19;;;;;;;11.60;5.55;;;;;;;13.80;90.43;101328.25;5044831;28;20051;-56
2022/06/10 03:47:46;;;;;;;8.85;4.70;;;;;;;13.85;90.55;101320.03;5065166;28;20382;-54
2022/06/10 03:50:20;;;;;;;14.45;4.75;;;;;;;13.88;90.62;101322.50;5064211;28;20048;-56
2022/06/10 03:52:48;;;;;;;9.45;4.38;;;;;;;13.92;90.41;101324.00;5061343;28;20056;-55
2022/06/10 03:55:18;;;;;;;8.88;5.38;;;;;;;13.93;90.73;101331.84;5047504;28;20678;-54
2022/06/10 03:57:46;;;;;;;9.07;4.95;;;;;;;13.96;90.76;101336.13;5063065;28;20053;-49
2022/06/10 04:00:23;;;;;;;11.68;5.78;;;;;;;13.98;90.87;101336.84;5060652;28;20044;-51
2022/06/10 04:02:50;;;;;;;12.27;6.00;;;;;;;14.00;91.16;101336.75;5067996;28;20052;-54
2022/06/10 04:05:18;;;;;;;11.15;5.30;;;;;;;14.01;91.11;101341.97;5061678;28;20045;-53
2022/06/10 04:07:45;;;;;;;11.88;5.72;;;;;;;14.05;91.37;101339.97;5063346;28;20386;-55
2022/06/10 04:10:19;;;;;;;9.95;4.75;;;;;;;14.06;91.17;101349.63;5060982;28;20052;-53
2022/06/10 04:12:46;;;;;;;9.75;4.68;;;;;;;14.06;91.31;101350.47;5062156;28;20045;-54
2022/06/10 04:15:14;;;;;;;12.25;4.90;;;;;;;14.07;91.24;101357.47;5061133;28;20570;-52
2022/06/10 04:17:46;;;;;;;6.50;4.10;;;;;;;14.11;91.10;101351.03;5065458;28;20065;-53
2022/06/10 04:20:20;;;;;;;9.32;5.03;;;;;;;14.13;91.19;101357.06;5058731;28;20051;-56
2022/06/10 04:22:47;;;;;;;11.77;4.93;;;;;;;14.19;90.82;101355.88;5061691;28;20052;-55
2022/06/10 04:25:15;;;;;;;10.90;4.60;;;;;;;14.18;90.60;101362.97;5063805;28;20399;-58
2022/06/10 04:27:43;;;;;;;11.48;4.30;;;;;;;14.23;90.59;101362.66;5064445;28;20056;-55
2022/06/10 04:30:21;;;;;;;9.23;4.95;;;;;;;14.32;90.59;101363.88;5062132;28;21541;-57
2022/06/10 04:32:48;;;;;;;8.82;4.20;;;;;;;14.37;90.24;101361.81;5060774;28;20049;-57
2022/06/10 04:35:15;;;;;;;7.13;4.68;;;;;;;14.41;89.91;101363.31;5060867;28;20043;-53
2022/06/10 04:37:44;;;;;;;8.10;4.18;;;;;;;14.48;90.05;101369.06;5064889;28;20053;-57
2022/06/10 04:40:18;;;;;;;12.18;5.25;;;;;;;14.49;89.36;101369.00;5058854;28;20060;-55
2022/06/10 04:42:46;;;;;;;11.75;5.18;;;;;;;14.52;89.13;101376.75;5065153;28;20079;-54
2022/06/10 04:45:16;;;;;;;10.90;5.03;;;;;;;14.58;88.46;101376.34;5061735;28;20056;-53
2022/06/10 04:47:43;;;;;;;16.38;5.28;;;;;;;14.60;88.29;101377.13;5065942;28;20060;-54
2022/06/10 04:50:12;;;;;;;14.98;5.80;;;;;;;14.60;87.79;101370.97;5066601;28;20055;-56
2022/06/10 04:52:39;;;;;;;12.93;5.50;;;;;;;14.64;87.63;101378.63;5070922;28;20052;-54
2022/06/10 04:55:09;;;;;;;9.07;4.72;;;;;;;14.69;87.36;101383.63;5045464;28;20129;-54
2022/06/10 04:57:37;;;;;;;17.13;5.13;;;;;;;14.65;86.72;101382.13;5071446;28;20116;-57
2022/06/10 05:00:07;;;;;;;11.98;5.40;;;;;;;14.66;86.62;101383.81;5065374;28;20900;-56
2022/06/10 05:02:34;;;;;;;10.65;4.72;;;;;;;14.73;86.32;101385.13;5036664;28;20090;-55
2022/06/10 05:05:02;;;;;;;8.00;4.18;;;;;;;14.75;85.56;101387.69;5066158;28;20060;-54
2022/06/10 05:07:30;;;;;;;11.82;4.80;;;;;;;14.78;85.36;101392.78;5064558;28;20055;-53
2022/06/10 05:09:57;;;;;;;11.80;5.43;;;;;;;14.88;85.33;101397.41;5064444;28;20076;-55
2022/06/10 05:12:24;;;;;;;8.57;4.22;;;;;;;14.99;85.11;101393.19;5072024;28;20075;-54
2022/06/10 05:14:51;;;;;;;13.57;4.03;;;;;;;15.04;82.99;101405.22;5060165;28;20068;-53
2022/06/10 05:17:18;;;;;;;10.90;4.63;;;;;;;15.09;82.41;101403.13;5065178;28;20052;-54
2022/06/10 05:19:47;;;;;;;12.88;4.20;;;;;;;15.16;81.76;101396.44;5049891;28;20532;-53
2022/06/10 05:22:17;;;;;;;12.35;4.55;;;;;;;15.27;81.42;101398.41;5060704;28;20777;-54
2022/06/10 05:24:44;;;;;;;10.80;5.07;;;;;;;15.31;80.30;101404.31;5060418;28;20044;-55
2022/06/10 05:27:11;;;;;;;8.98;4.10;;;;;;;15.41;80.21;101405.44;5067215;28;20126;-54
2022/06/10 05:29:38;;;;;;;15.63;4.53;;;;;;;15.49;79.39;101407.56;5057053;28;20056;-55
2022/06/10 05:32:06;;;;;;;7.45;3.80;;;;;;;15.46;78.15;101416.59;5064910;28;20051;-55
2022/06/10 05:34:46;;;;;;;9.27;3.85;;;;;;;15.43;77.86;101411.47;5064597;28;20412;-57
2022/06/10 05:37:17;;;;;;;11.50;3.78;;;;;;;15.48;77.91;101413.81;5039142;28;20074;-55
2022/06/10 05:39:44;;;;;;;10.57;3.22;;;;;;;15.49;76.82;101411.09;5065913;28;20044;-54
2022/06/10 05:42:12;;;;;;;8.75;3.92;;;;;;;15.59;76.37;101412.16;5063883;28;20060;-52
2022/06/10 05:44:42;;;;;;;11.68;3.17;;;;;;;15.72;76.04;101422.84;5061948;28;20041;-55
2022/06/10 05:47:13;;;;;;;10.23;3.28;;;;;;;15.74;75.31;101422.72;5062337;28;20044;-54
2022/06/10 05:49:43;;;;;;;9.07;2.97;;;;;;;15.80;74.94;101425.78;5053968;28;20060;-55
2022/06/10 05:52:12;;;;;;;8.13;2.85;;;;;;;15.82;74.44;101415.09;5061898;28;20051;-56
2022/06/10 05:54:42;;;;;;;9.98;3.03;;;;;;;15.98;74.40;101418.38;5058536;28;20052;-55
2022/06/10 05:57:10;;;;;;;8.82;3.35;;;;;;;16.07;73.14;101427.53;5058193;28;20057;-55
2022/06/10 05:59:37;;;;;;;8.75;3.05;;;;;;;16.05;72.39;101416.16;5063164;28;20701;-55
2022/06/10 06:02:08;;;;;;;9.90;3.03;;;;;;;15.91;72.11;101420.63;5062428;28;20062;-54
2022/06/10 06:04:35;;;;;;;7.60;2.90;;;;;;;15.98;71.67;101420.19;5059981;28;20048;-55
2022/06/10 06:07:03;;;;;;;9.85;3.75;;;;;;;16.11;71.93;101424.53;5055163;28;20127;-51
2022/06/10 06:09:30;;;;;;;9.68;3.15;;;;;;;16.19;72.07;101419.56;5061353;28;20060;-55
2022/06/10 06:11:57;;;;;;;8.15;2.95;;;;;;;16.31;71.48;101428.47;5062336;28;20089;-55
2022/06/10 06:14:26;;;;;;;9.10;2.53;;;;;;;16.43;70.49;101421.44;5063769;28;20532;-54
2022/06/10 06:16:59;;;;;;;10.18;2.53;;;;;;;16.41;69.19;101424.22;5059981;28;20061;-55
2022/06/10 06:19:28;;;;;;;11.88;2.45;;;;;;;16.43;68.78;101422.28;5062858;28;20050;-54
2022/06/10 06:21:55;;;;;;;5.80;1.70;;;;;;;16.56;68.69;101424.06;5066464;28;20635;-55
2022/06/10 06:24:22;;;;;;;13.00;2.10;;;;;;;16.56;67.96;101422.25;5061289;28;20112;-55
2022/06/10 06:26:50;;;;;;;9.27;2.28;;;;;;;16.68;67.81;101424.06;5061903;28;20067;-61
2022/06/10 06:29:18;;;;;;;11.52;2.35;;;;;;;16.77;67.42;101427.91;5064801;28;20048;-56
2022/06/10 06:31:46;;;;;;;7.25;2.58;;;;;;;16.84;67.41;101431.81;5054364;28;20725;-53
2022/06/10 06:34:13;;;;;;;7.63;2.13;;;;;;;16.92;67.35;101431.25;5073206;28;20060;-55
2022/06/10 06:36:45;;;;;;;7.90;2.55;;;;;;;17.03;66.89;101431.31;5062242;28;20413;-56
2022/06/10 06:39:16;;;;;;;9.55;1.88;;;;;;;17.05;66.87;101428.53;5060802;28;20412;-56
2022/06/10 06:41:48;;;;;;;5.05;1.88;;;;;;;17.18;66.63;101440.81;5054898;28;20056;-53
2022/06/10 06:44:15;;;;;;;9.63;2.55;;;;;;;17.08;66.31;101441.63;5043166;28;20044;-53
2022/06/10 06:46:43;;;;;;;6.80;1.60;;;;;;;16.99;66.21;101434.31;5063158;28;20418;-54
2022/06/10 06:49:23;;;;;;;10.70;2.10;;;;;;;16.87;66.58;101444.88;5059434;28;20118;-56
2022/06/10 06:51:51;;;;;;;5.65;1.65;;;;;;;17.06;65.84;101454.19;5058251;28;20052;-55
2022/06/10 06:54:19;;;;;;;7.60;2.17;;;;;;;17.14;65.97;101446.50;5066550;28;20055;-57
2022/06/10 06:56:47;;;;;;;6.47;1.90;;;;;;;17.03;65.74;101449.94;5062050;28;20044;-56
2022/06/10 06:59:14;;;;;;;9.68;1.98;;;;;;;17.09;65.58;101457.47;5063875;28;20123;-57
2022/06/10 07:01:41;;;;;;;5.97;1.75;;;;;;;17.09;64.47;101454.81;5066108;28;20052;-56
2022/06/10 07:04:09;;;;;;;5.90;1.90;;;;;;;17.17;64.99;101462.22;5065688;28;20045;-56
2022/06/10 07:06:43;;;;;;;5.57;1.33;;;;;;;17.27;63.19;101455.28;5058506;28;20052;-53
2022/06/10 07:09:10;;;;;;;10.27;2.25;;;;;;;17.40;62.82;101455.22;5065644;28;20076;-55
2022/06/10 07:11:38;;;;;;;13.30;2.13;;;;;;;17.50;62.20;101455.38;5066649;28;20071;-56
2022/06/10 07:14:11;;;;;;;10.32;2.00;;;;;;;17.46;60.53;101462.72;5060673;28;20060;-53
2022/06/10 07:16:39;;;;;;;6.47;1.50;;;;;;;17.44;59.76;101465.50;5062901;28;20049;-55
2022/06/10 07:19:06;;;;;;;8.48;1.55;;;;;;;17.51;58.67;101449.06;5070989;28;20457;-53
2022/06/10 07:21:33;;;;;;;6.43;1.70;;;;;;;17.61;58.04;101458.94;5059691;28;20056;-54
2022/06/10 07:24:01;;;;;;;8.15;1.83;;;;;;;17.61;56.81;101452.78;5054825;28;20107;-55
2022/06/10 07:26:28;;;;;;;11.57;1.38;;;;;;;17.48;56.56;101460.81;5045604;28;20053;-55
2022/06/10 07:28:55;;;;;;;6.78;1.92;;;;;;;17.54;56.16;101454.19;5066716;28;20116;-53
2022/06/10 07:31:22;;;;;;;6.88;1.48;;;;;;;17.61;56.41;101456.28;5056360;28;20059;-54
2022/06/10 07:33:49;;;;;;;8.40;1.52;;;;;;;17.78;56.69;101456.81;5059725;28;20067;-53
2022/06/10 07:36:16;;;;;;;7.70;1.35;;;;;;;17.90;55.53;101461.22;5064884;28;20060;-54
2022/06/10 07:38:43;;;;;;;8.40;1.55;;;;;;;18.03;55.46;101469.97;5061544;28;20053;-57
2022/06/10 07:43:56;;;;;;;7.60;1.48;;;;;;;18.03;54.08;101469.97;5059359;28;20092;-55
2022/06/10 07:46:23;;;;;;;6.63;1.60;;;;;;;18.12;54.23;101465.75;5067326;28;20063;-53
2022/06/10 07:48:51;;;;;;;5.82;1.30;;;;;;;18.11;54.21;101464.06;5059103;28;20059;-56
2022/06/10 07:51:19;;;;;;;16.63;3.42;;;;;;;18.17;54.21;101466.25;5063072;28;20048;-55
2022/06/10 07:53:47;;;;;;;10.30;1.88;;;;;;;18.31;53.54;101475.84;5069518;28;20055;-56
2022/06/10 07:56:15;;;;;;;10.80;2.55;;;;;;;18.37;53.44;101475.34;5067106;28;20049;-54
2022/06/10 07:58:44;;;;;;;10.50;2.95;;;;;;;18.50;52.90;101473.41;5057389;28;20056;-57
2022/06/10 08:01:11;;;;;;;15.10;1.95;;;;;;;18.65;52.64;101480.22;5064927;28;20064;-55
2022/06/10 08:03:47;;;;;;;8.20;2.28;;;;;;;18.64;51.88;101481.19;5066507;28;20408;-53
2022/06/10 08:06:15;;;;;;;9.20;2.45;;;;;;;18.67;52.14;101482.75;5067476;28;20110;-54
2022/06/10 08:08:42;;;;;;;8.27;1.90;;;;;;;18.78;52.26;101476.59;5050197;28;20149;-56
2022/06/10 08:11:10;;;;;;;6.78;1.95;;;;;;;18.94;52.37;101471.72;5064298;28;20106;-53
2022/06/10 08:13:37;;;;;;;6.15;1.70;;;;;;;19.10;51.80;101469.53;5047879;28;20068;-51
2022/06/10 08:16:04;;;;;;;9.60;2.08;;;;;;;19.08;51.18;101468.78;5045387;28;20043;-54
2022/06/10 08:18:33;;;;;;;7.80;1.48;;;;;;;18.96;50.85;101475.13;5070825;28;20052;-54
2022/06/10 08:23:47;;;;;;;6.05;1.60;;;;;;;18.89;51.69;101471.25;5063300;28;20064;-57
2022/06/10 08:26:14;;;;;;;10.63;2.15;;;;;;;18.95;52.09;101470.75;5067254;28;20041;-57
2022/06/10 08:28:44;;;;;;;7.90;1.92;;;;;;;19.14;51.92;101492.31;5066426;28;20064;-53
2022/06/10 08:31:11;;;;;;;9.40;1.73;;;;;;;19.14;51.20;101478.97;5061326;28;20049;-58
2022/06/10 08:33:39;;;;;;;9.77;2.28;;;;;;;19.45;50.18;101476.44;5063916;28;20055;-49
2022/06/10 08:36:07;;;;;;;7.65;1.77;;;;;;;19.62;49.95;101473.25;5067424;28;20050;-53
2022/06/10 08:38:34;;;;;;;7.40;2.65;;;;;;;19.83;49.41;101477.78;5065537;28;20064;-54
2022/06/10 08:41:12;;;;;;;8.35;2.42;;;;;;;19.89;49.45;101478.09;5059842;28;20163;-53
2022/06/10 08:43:50;;;;;;;10.20;2.35;;;;;;;20.02;49.55;101472.53;5070953;28;20397;-54
2022/06/10 08:46:29;;;;;;;17.73;2.33;;;;;;;20.28;49.02;101469.47;5065256;28;20044;-56
2022/06/10 08:49:09;;;;;;;13.43;3.35;;;;;;;20.54;48.65;101477.94;5066091;28;20072;-55
2022/06/10 08:52:14;;;;;;;10.60;2.40;;;;;;;20.62;48.45;101470.91;5061824;28;20151;-57
2022/06/10 08:55:14;;;;;;;29.48;3.47;;;;;;;20.61;48.02;101485.28;5053014;28;20044;-57
2022/06/10 08:57:47;;;;;;;14.10;2.72;;;;;;;20.48;48.29;101476.63;5062780;28;20056;-55
2022/06/10 09:00:23;;;;;;;10.05;2.38;;;;;;;20.30;49.30;101483.53;5055355;28;20052;-56
2022/06/10 09:02:53;;;;;;;8.75;1.58;;;;;;;19.95;48.31;101472.25;5058510;28;20067;-56
2022/06/10 09:05:29;;;;;;;6.63;1.83;;;;;;;20.10;48.05;101479.91;5060606;28;20063;-57
2022/06/10 09:08:02;;;;;;;12.45;2.58;;;;;;;20.23;47.95;101484.09;5043691;28;20052;-56
2022/06/10 09:10:45;;;;;;;11.98;1.75;;;;;;;20.15;47.12;101481.22;5028075;28;20052;-55
2022/06/10 09:13:40;;;;;;;6.60;1.83;;;;;;;20.28;46.20;101483.69;5048003;28;20048;-52
2022/06/10 09:16:14;;;;;;;9.40;1.70;;;;;;;20.27;46.43;101482.00;5065526;28;20057;-53
2022/06/10 09:18:56;;;;;;;12.23;2.10;;;;;;;20.27;46.57;101467.78;5067132;28;20496;-52
2022/06/10 09:21:48;;;;;;;6.65;1.30;;;;;;;20.52;46.14;101488.75;5060607;28;20052;-54
2022/06/10 09:24:34;;;;;;;11.23;1.80;;;;;;;20.71;44.82;101486.19;5068097;28;20056;-54
2022/06/10 09:27:05;;;;;;;;;;;;;;;20.63;43.70;101483.31;5061337;28;20052;-52
2022/06/10 09:29:32;;;;;;;14.73;1.65;;;;;;;20.87;43.16;101474.09;5038884;28;19928;-54
2022/06/10 09:32:26;;;;;;;10.32;2.10;;;;;;;21.17;43.11;101478.56;5058146;28;20056;-56
2022/06/10 09:35:12;;;;;;;6.68;1.33;;;;;;;20.99;42.77;101476.53;5052895;28;20068;-57
2022/06/10 09:37:49;;;;;;;15.32;1.40;;;;;;;20.77;43.49;101483.94;5049253;28;20396;-50
2022/06/10 09:40:38;;;;;;;9.02;1.10;;;;;;;21.07;43.46;101470.47;5045724;28;20745;-56
2022/06/10 09:43:18;;;;;;;8.40;1.48;;;;;;;21.02;42.81;101459.34;5063646;28;20052;-53
2022/06/10 09:46:11;;;;;;;10.70;1.92;;;;;;;21.12;42.94;101467.38;5069606;28;20244;-53
2022/06/10 09:48:52;;;;;;;10.30;2.05;;;;;;;21.47;43.38;101480.28;5036420;28;20620;-52
2022/06/10 09:51:39;;;;;;;9.20;1.52;;;;;;;21.29;43.48;101469.38;5042795;28;20643;-54
2022/06/10 09:54:36;;;;;;;10.27;1.85;;;;;;;21.53;44.15;101470.88;5056508;28;20051;-57
2022/06/10 09:57:41;;;;;;;14.13;2.45;;;;;;;21.51;42.96;101470.16;5047446;28;20047;-56
2022/06/10 10:00:18;;;;;;;18.70;2.17;;;;;;;21.62;43.09;101470.84;5061344;28;20056;-55
2022/06/10 10:02:45;;;;;;;5.75;1.80;;;;;;;21.72;42.75;101482.41;5044956;28;20520;-57
2022/06/10 10:05:33;;;;;;;9.85;1.70;;;;;;;21.93;42.72;101473.34;5065024;28;20064;-57
2022/06/10 10:08:29;;;;;;;8.13;1.90;;;;;;;22.08;42.04;101471.91;5059428;28;20504;-57
2022/06/10 10:11:04;;;;;;;12.40;1.95;;;;;;;22.10;42.33;101469.94;5040613;28;20057;-57
2022/06/10 10:14:02;;;;;;;6.90;1.80;;;;;;;21.68;42.57;101470.28;5064654;28;20049;-55
2022/06/10 10:16:48;;;;;;;8.57;1.40;;;;;;;21.75;41.85;101473.25;5044814;28;20052;-53
2022/06/10 10:19:42;;;;;;;7.82;1.65;;;;;;;21.73;40.89;101484.09;5066852;28;20052;-57
2022/06/10 10:22:46;;;;;;;5.70;1.42;;;;;;;21.73;40.26;101469.84;5058373;28;20053;-55
2022/06/10 10:25:19;;;;;;;6.28;1.30;;;;;;;21.92;40.43;101467.13;5040346;28;20057;-52
2022/06/10 10:27:47;;;;;;;6.30;1.73;;;;;;;22.10;40.40;101472.63;5044952;28;20048;-57
2022/06/10 10:30:20;;;;;;;9.63;2.30;;;;;;;21.88;39.84;101465.72;5048286;28;20045;-54
2022/06/10 10:33:06;;;;;;;10.15;1.98;;;;;;;21.98;40.09;101468.44;5048778;28;20052;-55
2022/06/10 10:35:48;;;;;;;6.93;1.83;;;;;;;22.03;39.06;101468.00;5060127;28;20057;-55
2022/06/10 10:38:31;;;;;;;3.13;1.40;;;;;;;22.12;39.24;101472.53;5061309;28;20053;-53
2022/06/10 10:40:58;;;;;;;5.50;1.80;;;;;;;22.14;40.53;101460.63;5063120;28;20150;-57
2022/06/10 10:43:28;;;;;;;7.90;1.42;;;;;;;22.28;40.49;101462.00;5065003;28;20056;-55
2022/06/10 10:46:03;;;;;;;3.22;1.45;;;;;;;22.34;39.08;101472.16;5066302;28;20060;-56
2022/06/10 10:48:34;;;;;;;7.80;1.60;;;;;;;22.50;39.08;101460.81;5062887;28;20067;-56
2022/06/10 10:51:10;;;;;;;5.25;1.42;;;;;;;22.80;38.50;101456.16;5045648;28;20048;-59
2022/06/10 10:54:06;;;;;;;7.97;1.25;;;;;;;22.65;37.22;101470.06;5060827;28;20048;-57
2022/06/10 10:56:37;;;;;;;10.02;2.10;;;;;;;22.24;37.58;101461.47;5048521;28;20057;-57
2022/06/10 10:59:04;;;;;;;7.47;1.80;;;;;;;21.99;38.54;101465.59;5071467;28;20048;-56
2022/06/10 11:01:46;;;;;;;7.07;1.80;;;;;;;22.32;37.98;101457.19;5043777;28;20123;-56
2022/06/10 11:04:31;;;;;;;8.15;1.60;;;;;;;22.67;37.76;101459.19;5059170;28;20059;-56
2022/06/10 11:07:11;;;;;;;6.25;1.50;;;;;;;22.95;36.03;101465.41;5062272;28;20056;-57
2022/06/10 11:10:07;;;;;;;5.85;1.58;;;;;;;22.59;36.90;101462.59;5070457;28;20456;-56
2022/06/10 11:12:35;;;;;;;5.20;1.60;;;;;;;22.66;37.17;101468.22;5070756;28;20064;-56
2022/06/10 11:15:22;;;;;;;6.45;1.30;;;;;;;23.04;37.28;101447.56;5062187;28;20053;-55
2022/06/10 11:17:49;;;;;;;5.47;1.50;;;;;;;23.42;36.49;101462.56;5061048;28;20059;-56
2022/06/10 11:20:33;;;;;;;4.70;1.92;;;;;;;23.53;35.92;101465.00;5068085;28;20306;-57
2022/06/10 11:23:18;;;;;;;5.38;1.33;;;;;;;23.56;36.01;101464.69;5065049;28;20068;-56
2022/06/10 11:26:13;;;;;;;7.47;1.65;;;;;;;23.65;35.34;101466.50;5064165;28;20056;-56
2022/06/10 11:28:42;;;;;;;5.72;1.45;;;;;;;23.38;35.19;101459.31;5064693;28;20052;-56
2022/06/10 11:31:33;;;;;;;9.90;1.67;;;;;;;23.44;36.35;101457.84;5063552;28;20059;-56
2022/06/10 11:34:00;;;;;;;7.75;1.20;;;;;;;23.71;36.19;101444.34;5046761;28;20052;-56
2022/06/10 11:36:35;;;;;;;8.80;1.75;;;;;;;24.06;35.56;101456.03;5060953;28;20048;-56
2022/06/10 11:39:11;;;;;;;4.85;1.35;;;;;;;23.99;35.14;101445.03;5060742;28;20057;-54
2022/06/10 11:41:38;;;;;;;11.98;2.00;;;;;;;23.95;34.62;101443.66;5061848;28;20126;-56
2022/06/10 11:44:12;;;;;;;4.13;1.40;;;;;;;24.01;35.17;101444.91;5062771;28;20051;-57
2022/06/10 11:47:06;;;;;;;5.53;1.35;;;;;;;24.12;34.91;101433.88;5040637;28;20053;-53
2022/06/10 11:49:51;;;;;;;7.75;1.67;;;;;;;24.30;34.86;101435.66;5065454;28;20056;-51
2022/06/10 11:52:31;;;;;;;8.65;1.83;;;;;;;24.17;34.58;101426.16;5041425;28;20059;-54
2022/06/10 11:55:08;;;;;;;5.18;1.45;;;;;;;24.31;33.87;101429.25;5041408;28;20889;-53
2022/06/10 12:00:36;;;;;;;10.57;1.70;;;;;;;24.39;33.97;101434.72;5063426;28;20055;-52
2022/06/10 12:03:41;;;;;;;9.60;1.52;;;;;;;24.23;33.33;101424.69;5044268;28;20151;-59
2022/06/10 12:06:29;;;;;;;5.95;1.90;;;;;;;24.17;32.92;101428.84;5043799;28;20062;-57
2022/06/10 12:09:21;;;;;;;8.45;1.50;;;;;;;24.06;32.58;101418.38;5063137;28;20053;-55